createdAt,value
2019-03-24T00:04:06.104Z,102503.56
2019-03-24T00:09:00.111Z,102494.98
2019-03-24T00:13:54.199Z,102507.55
2019-03-24T00:18:48.252Z,102497.02
2019-03-24T00:23:42.273Z,102504.25
2019-03-24T00:28:36.241Z,102500.26
2019-03-24T00:33:30.200Z,102496.61
2019-03-24T00:38:24.192Z,102498.72
2019-03-24T00:43:18.174Z,102490.48
2019-03-24T00:48:12.164Z,102485.13
2019-03-24T00:53:06.132Z,102476.75
2019-03-24T00:58:00.330Z,102473.70
2019-03-24T01:02:54.301Z,102466.70
2019-03-24T01:07:48.505Z,102464.89
2019-03-24T01:12:42.485Z,102459.75
2019-03-24T01:17:36.852Z,102461.14
2019-03-24T01:22:30.918Z,102456.72
2019-03-24T01:27:24.888Z,102459.45
2019-03-24T01:32:18.959Z,102459.15
2019-03-24T01:37:12.924Z,102460.85
2019-03-24T01:42:07.037Z,102459.21
2019-03-24T01:47:01.128Z,102452.41
2019-03-24T01:51:55.103Z,102455.55
2019-03-24T01:56:49.072Z,102449.38
2019-03-24T02:01:43.076Z,102450.79
2019-03-24T02:06:38.670Z,102445.48
2019-03-24T02:11:32.726Z,102441.13
2019-03-24T02:16:26.677Z,102442.20
2019-03-24T02:21:21.042Z,102444.55
2019-03-24T02:26:15.107Z,102447.68
2019-03-24T02:31:09.081Z,102438.16
2019-03-24T02:36:03.155Z,102440.09
2019-03-24T02:40:57.128Z,102434.47
2019-03-24T02:45:51.101Z,102427.23
2019-03-24T02:50:45.196Z,102423.86
2019-03-24T02:55:39.144Z,102419.97
2019-03-24T03:00:33.122Z,102424.58
2019-03-24T03:05:27.120Z,102416.62
2019-03-24T03:10:21.198Z,102422.47
2019-03-24T03:15:15.274Z,102421.84
2019-03-24T03:20:10.747Z,102424.40
2019-03-24T03:25:08.001Z,102427.31
2019-03-24T03:30:04.356Z,102422.63
2019-03-24T03:34:58.513Z,102418.95
2019-03-24T03:39:57.305Z,102410.59
2019-03-24T03:44:48.528Z,102414.80
2019-03-24T03:49:42.508Z,102407.00
2019-03-24T03:54:36.461Z,102406.56
2019-03-24T03:59:30.443Z,102398.12
2019-03-24T04:04:24.417Z,102397.98
2019-03-24T04:09:18.398Z,102394.60
2019-03-24T04:14:12.475Z,102389.70
2019-03-24T04:19:06.394Z,102392.36
2019-03-24T04:24:00.359Z,102395.08
2019-03-24T04:28:54.446Z,102392.20
2019-03-24T04:33:48.433Z,102382.50
2019-03-24T04:38:42.390Z,102375.11
2019-03-24T04:43:36.362Z,102375.11
2019-03-24T04:48:30.345Z,102369.10
2019-03-24T04:53:24.310Z,102366.83
2019-03-24T04:58:18.280Z,102365.02
2019-03-24T05:03:12.343Z,102363.86
2019-03-24T05:08:08.915Z,102372.45
2019-03-24T05:13:02.911Z,102386.09
2019-03-24T05:17:56.976Z,102376.65
2019-03-24T05:22:50.942Z,102380.25
2019-03-24T05:27:45.191Z,102382.66
2019-03-24T05:32:39.162Z,102372.45
2019-03-24T05:37:33.247Z,102373.95
2019-03-24T05:42:27.181Z,102380.16
2019-03-24T05:47:21.213Z,102377.45
2019-03-24T05:52:15.172Z,102372.78
2019-03-24T05:57:09.164Z,102365.27
2019-03-24T06:02:03.212Z,102369.56
2019-03-24T06:06:57.188Z,102375.11
2019-03-24T06:11:51.151Z,102383.61
2019-03-24T06:16:45.117Z,102378.14
2019-03-24T06:21:39.073Z,102383.22
2019-03-24T06:26:33.027Z,102385.80
2019-03-24T06:31:26.997Z,102395.84
2019-03-24T06:36:20.952Z,102384.16
2019-03-24T06:41:14.902Z,102384.53
2019-03-24T06:46:08.908Z,102386.89
2019-03-24T06:51:02.983Z,102384.38
2019-03-24T06:55:56.950Z,102382.20
2019-03-24T07:00:51.041Z,102372.89
2019-03-24T07:05:45.008Z,102378.84
2019-03-24T07:10:39.173Z,102370.08
2019-03-24T07:15:33.181Z,102362.59
2019-03-24T07:20:27.270Z,102359.28
2019-03-24T07:25:21.344Z,102356.20
2019-03-24T07:30:15.600Z,102352.98
2019-03-24T07:35:09.576Z,102351.75
2019-03-24T07:40:05.840Z,102352.42
2019-03-24T07:44:59.830Z,102346.84
2019-03-24T07:49:53.947Z,102336.20
2019-03-24T07:54:47.915Z,102345.14
2019-03-24T07:59:41.933Z,102342.45
2019-03-24T08:04:35.892Z,102335.03
2019-03-24T08:09:29.876Z,102326.33
2019-03-24T08:14:24.018Z,102326.33
2019-03-24T08:19:17.976Z,102322.93
2019-03-24T08:24:11.959Z,102318.17
2019-03-24T08:29:05.920Z,102314.97
2019-03-24T08:33:59.891Z,102299.28
2019-03-24T08:38:53.982Z,102299.78
2019-03-24T08:43:47.957Z,102301.27
2019-03-24T08:48:42.007Z,102307.39
2019-03-24T08:53:36.009Z,102314.31
2019-03-24T08:58:29.969Z,102320.47
2019-03-24T09:03:23.985Z,102323.48
2019-03-24T09:08:18.080Z,102324.72
2019-03-24T09:13:12.168Z,102319.58
2019-03-24T09:18:06.156Z,102321.03
2019-03-24T09:23:00.256Z,102311.27
2019-03-24T09:27:54.345Z,102310.17
2019-03-24T09:32:48.331Z,102313.52
2019-03-24T09:37:42.299Z,102312.42
2019-03-24T09:42:36.262Z,102312.31
2019-03-24T09:47:30.277Z,102320.69
2019-03-24T09:52:24.457Z,102326.70
2019-03-24T09:57:18.458Z,102323.41
2019-03-24T10:02:14.484Z,102318.53
2019-03-24T10:07:08.460Z,102324.41
2019-03-24T10:12:02.773Z,102322.75
2019-03-24T10:16:56.858Z,102317.25
2019-03-24T10:21:50.865Z,102315.46
2019-03-24T10:26:44.983Z,102312.38
2019-03-24T10:31:39.047Z,102308.66
2019-03-24T10:36:33.335Z,102302.95
2019-03-24T10:41:27.277Z,102307.19
2019-03-24T10:46:21.394Z,102305.80
2019-03-24T10:51:15.627Z,102296.34
2019-03-24T10:56:09.625Z,102290.99
2019-03-24T11:01:03.636Z,102284.11
2019-03-24T11:05:57.741Z,102270.87
2019-03-24T11:10:51.792Z,102239.48
2019-03-24T11:15:45.985Z,102239.48
2019-03-24T11:20:40.237Z,102227.73
2019-03-24T11:25:34.317Z,102213.15
2019-03-24T11:30:28.303Z,102201.27
2019-03-24T11:35:22.390Z,102219.47
2019-03-24T11:40:16.608Z,102222.05
2019-03-24T11:45:11.221Z,102219.41
2019-03-24T11:50:06.208Z,102208.42
2019-03-24T11:55:00.417Z,102194.33
2019-03-24T11:59:54.437Z,102189.41
2019-03-24T12:04:48.438Z,102182.74
2019-03-24T12:09:42.414Z,102187.62
2019-03-24T12:14:36.409Z,102183.32
2019-03-24T12:19:30.413Z,102182.85
2019-03-24T12:24:24.388Z,102179.36
2019-03-24T12:29:18.512Z,102184.12
2019-03-24T12:34:12.502Z,102168.81
2019-03-24T12:39:06.576Z,102169.17
2019-03-24T12:44:00.568Z,102167.14
2019-03-24T12:48:54.626Z,102167.14
2019-03-24T12:53:48.740Z,102167.80
2019-03-24T12:58:42.760Z,102161.36
2019-03-24T13:03:36.771Z,102159.05
2019-03-24T13:08:30.752Z,102153.90
2019-03-24T13:13:24.879Z,102156.34
2019-03-24T13:18:18.905Z,102143.47
2019-03-24T13:23:13.123Z,102146.75
2019-03-24T13:28:07.224Z,102146.19
2019-03-24T13:33:01.404Z,102139.92
2019-03-24T13:37:55.517Z,102134.05
2019-03-24T13:42:49.498Z,102135.72
2019-03-24T13:47:43.521Z,102131.73
2019-03-24T13:52:37.534Z,102135.37
2019-03-24T13:57:31.606Z,102136.28
2019-03-24T14:02:25.705Z,102139.63
2019-03-24T14:07:19.900Z,102128.45
2019-03-24T14:12:13.892Z,102131.25
2019-03-24T14:17:08.116Z,102121.09
2019-03-24T14:22:02.344Z,102126.72
2019-03-24T14:26:56.337Z,102115.66
2019-03-24T14:31:50.403Z,102113.25
2019-03-24T14:36:44.405Z,102107.87
2019-03-24T14:41:38.600Z,102098.58
2019-03-24T14:46:32.671Z,102101.42
2019-03-24T14:51:26.744Z,102086.50
2019-03-24T14:56:20.717Z,102091.80
2019-03-24T15:01:14.690Z,102084.73
2019-03-24T15:06:08.758Z,102083.34
2019-03-24T15:11:02.882Z,102071.69
2019-03-24T15:15:56.849Z,102071.81
2019-03-24T15:20:50.968Z,102061.86
2019-03-24T15:25:44.958Z,102051.02
2019-03-24T15:30:39.076Z,102052.27
2019-03-24T15:35:33.031Z,102053.38
2019-03-24T15:40:27.135Z,102052.39
2019-03-24T15:45:21.497Z,102054.66
2019-03-24T15:50:15.586Z,102041.88
2019-03-24T15:55:09.805Z,102036.92
2019-03-24T16:00:06.077Z,102034.06
2019-03-24T16:05:00.316Z,102033.55
2019-03-24T16:09:54.397Z,102021.64
2019-03-24T16:14:48.454Z,102026.05
2019-03-24T16:19:42.440Z,102015.41
2019-03-24T16:24:36.428Z,102017.37
2019-03-24T16:29:30.482Z,102008.30
2019-03-24T16:34:24.473Z,102005.10
2019-03-24T16:39:18.435Z,102009.16
2019-03-24T16:44:12.408Z,102005.98
2019-03-24T16:49:06.454Z,102008.81
2019-03-24T16:54:00.568Z,102006.25
2019-03-24T16:58:54.671Z,102008.28
2019-03-24T17:03:48.658Z,102002.73
2019-03-24T17:08:42.635Z,102013.52
2019-03-24T17:13:36.609Z,102018.92
2019-03-24T17:18:30.819Z,102011.66
2019-03-24T17:23:24.819Z,102014.06
2019-03-24T17:28:18.854Z,102019.60
2019-03-24T17:33:13.322Z,102025.25
2019-03-24T17:38:07.446Z,102019.69
2019-03-24T17:43:01.645Z,102028.64
2019-03-24T17:47:57.828Z,102027.47
2019-03-24T17:52:51.912Z,102034.52
2019-03-24T17:57:46.054Z,102032.54
2019-03-24T18:02:40.054Z,102040.55
2019-03-24T18:07:34.091Z,102038.57
2019-03-24T18:12:28.132Z,102049.41
2019-03-24T18:17:22.159Z,102052.20
2019-03-24T18:22:16.208Z,102054.03
2019-03-24T18:27:10.257Z,102055.73
2019-03-24T18:32:04.498Z,102061.88
2019-03-24T18:36:58.494Z,102051.70
2019-03-24T18:41:52.602Z,102062.27
2019-03-24T18:46:46.615Z,102064.77
2019-03-24T18:51:40.604Z,102067.13
2019-03-24T18:56:34.698Z,102060.23
2019-03-24T19:01:28.852Z,102056.89
2019-03-24T19:06:23.071Z,102060.81
2019-03-24T19:11:17.295Z,102065.52
2019-03-24T19:16:11.311Z,102058.11
2019-03-24T19:21:05.491Z,102068.59
2019-03-24T19:25:59.553Z,102069.49
2019-03-24T19:30:53.897Z,102068.72
2019-03-24T19:35:48.073Z,102067.56
2019-03-24T19:40:42.214Z,102063.70
2019-03-24T19:45:36.201Z,102064.91
2019-03-24T19:50:30.423Z,102066.88
2019-03-24T19:55:24.482Z,102056.59
2019-03-24T20:00:18.628Z,102065.61
2019-03-24T20:05:12.662Z,102067.51
2019-03-24T20:10:06.939Z,102061.86
2019-03-24T20:15:01.186Z,102063.53
2019-03-24T20:19:55.325Z,102063.89
2019-03-24T20:24:49.456Z,102055.49
2019-03-24T20:29:43.623Z,102058.81
2019-03-24T20:34:37.786Z,102067.87
2019-03-24T20:39:31.830Z,102067.84
2019-03-24T20:44:25.924Z,102070.97
2019-03-24T20:49:20.042Z,102068.63
2019-03-24T20:54:14.036Z,102069.18
2019-03-24T20:59:08.122Z,102068.49
2019-03-24T21:04:02.231Z,102071.17
2019-03-24T21:08:56.223Z,102074.08
2019-03-24T21:13:50.249Z,102073.89
2019-03-24T21:18:44.265Z,102078.80
2019-03-24T21:23:38.265Z,102081.12
2019-03-24T21:28:32.244Z,102063.52
2019-03-24T21:33:26.337Z,102057.72
2019-03-24T21:38:20.435Z,102053.06
2019-03-24T21:43:14.522Z,102053.48
2019-03-24T21:48:08.529Z,102041.05
2019-03-24T21:53:02.945Z,102045.56
2019-03-24T21:57:57.987Z,102034.44
2019-03-24T22:02:52.208Z,102038.38
2019-03-24T22:07:46.206Z,102032.33
2019-03-24T22:12:40.193Z,102032.57
2019-03-24T22:17:34.180Z,102035.00
2019-03-24T22:22:28.425Z,102032.69
2019-03-24T22:27:22.405Z,102028.59
2019-03-24T22:32:16.377Z,102030.05
2019-03-24T22:37:15.787Z,102020.77
2019-03-24T22:42:06.258Z,102016.09
2019-03-24T22:47:00.256Z,102008.63
2019-03-24T22:51:58.709Z,102008.28
2019-03-24T22:56:50.167Z,101999.84
2019-03-24T23:01:44.500Z,101998.57
2019-03-24T23:06:38.597Z,101989.01
2019-03-24T23:11:32.675Z,101986.59
2019-03-24T23:16:26.659Z,101975.45
2019-03-24T23:21:20.647Z,101974.64
2019-03-24T23:26:14.731Z,101971.23
2019-03-24T23:31:08.735Z,101969.94
2019-03-24T23:36:02.803Z,101960.05
2019-03-24T23:40:56.780Z,101951.23
2019-03-24T23:45:50.744Z,101944.53
2019-03-24T23:50:44.848Z,101932.73
2019-03-24T23:55:38.828Z,101932.22
